sensor_id;sensor_type;location;lat;lon;timestamp;pressure;altitude;pressure_sealevel;temperature;humidity
55801;BME280;41730;51.960;20.158;2023-06-14T00:02:19;100303.20;;;13.44;80.27
55801;BME280;41730;51.960;20.158;2023-06-14T00:04:53;100300.21;;;13.52;80.06
55801;BME280;41730;51.960;20.158;2023-06-14T00:07:35;100299.06;;;13.52;79.43
55801;BME280;41730;51.960;20.158;2023-06-14T00:10:09;100304.98;;;13.64;79.29
55801;BME280;41730;51.960;20.158;2023-06-14T00:12:42;100309.71;;;13.53;79.71
55801;BME280;41730;51.960;20.158;2023-06-14T00:15:14;100310.14;;;13.49;79.74
55801;BME280;41730;51.960;20.158;2023-06-14T00:17:46;100306.84;;;13.46;79.94
55801;BME280;41730;51.960;20.158;2023-06-14T00:20:18;100299.29;;;13.52;79.90
55801;BME280;41730;51.960;20.158;2023-06-14T00:22:49;100300.66;;;13.56;79.87
55801;BME280;41730;51.960;20.158;2023-06-14T00:25:23;100296.10;;;13.65;79.82
55801;BME280;41730;51.960;20.158;2023-06-14T00:27:59;100300.23;;;13.62;80.01
55801;BME280;41730;51.960;20.158;2023-06-14T00:30:31;100298.85;;;13.66;80.07
55801;BME280;41730;51.960;20.158;2023-06-14T00:33:02;100298.48;;;13.66;80.13
55801;BME280;41730;51.960;20.158;2023-06-14T00:35:34;100301.80;;;13.57;80.44
55801;BME280;41730;51.960;20.158;2023-06-14T00:38:06;100302.80;;;13.52;80.66
55801;BME280;41730;51.960;20.158;2023-06-14T00:40:37;100297.64;;;13.54;80.60
55801;BME280;41730;51.960;20.158;2023-06-14T00:43:09;100298.73;;;13.52;80.56
55801;BME280;41730;51.960;20.158;2023-06-14T00:45:40;100298.90;;;13.61;80.15
55801;BME280;41730;51.960;20.158;2023-06-14T00:48:12;100295.52;;;13.71;79.92
55801;BME280;41730;51.960;20.158;2023-06-14T00:50:45;100294.53;;;13.74;79.61
55801;BME280;41730;51.960;20.158;2023-06-14T00:53:18;100293.91;;;13.77;79.71
55801;BME280;41730;51.960;20.158;2023-06-14T00:55:53;100288.13;;;13.84;79.47
55801;BME280;41730;51.960;20.158;2023-06-14T00:58:24;100288.73;;;13.89;79.03
55801;BME280;41730;51.960;20.158;2023-06-14T01:00:57;100291.91;;;13.83;79.42
55801;BME280;41730;51.960;20.158;2023-06-14T01:03:29;100291.36;;;13.89;79.39
55801;BME280;41730;51.960;20.158;2023-06-14T01:06:09;100290.48;;;13.97;79.24
55801;BME280;41730;51.960;20.158;2023-06-14T01:08:50;100288.77;;;13.94;79.21
55801;BME280;41730;51.960;20.158;2023-06-14T01:11:26;100294.92;;;14.00;79.04
55801;BME280;41730;51.960;20.158;2023-06-14T01:14:01;100291.94;;;14.02;78.88
55801;BME280;41730;51.960;20.158;2023-06-14T01:16:34;100291.02;;;14.02;78.98
55801;BME280;41730;51.960;20.158;2023-06-14T01:19:13;100289.36;;;13.92;79.37
55801;BME280;41730;51.960;20.158;2023-06-14T01:21:45;100289.75;;;13.88;79.70
55801;BME280;41730;51.960;20.158;2023-06-14T01:24:21;100286.45;;;13.91;79.68
55801;BME280;41730;51.960;20.158;2023-06-14T01:26:58;100286.89;;;13.86;79.87
55801;BME280;41730;51.960;20.158;2023-06-14T01:29:31;100282.20;;;13.89;79.64
55801;BME280;41730;51.960;20.158;2023-06-14T01:32:04;100282.69;;;13.80;80.04
55801;BME280;41730;51.960;20.158;2023-06-14T01:34:36;100277.60;;;13.85;79.96
55801;BME280;41730;51.960;20.158;2023-06-14T01:37:08;100275.63;;;13.78;80.05
55801;BME280;41730;51.960;20.158;2023-06-14T01:39:40;100276.09;;;13.79;80.25
55801;BME280;41730;51.960;20.158;2023-06-14T01:42:16;100281.15;;;13.79;80.43
55801;BME280;41730;51.960;20.158;2023-06-14T01:44:48;100279.02;;;13.76;80.76
55801;BME280;41730;51.960;20.158;2023-06-14T01:47:20;100283.44;;;13.74;80.85
55801;BME280;41730;51.960;20.158;2023-06-14T01:49:52;100281.42;;;13.82;80.45
55801;BME280;41730;51.960;20.158;2023-06-14T01:52:24;100280.72;;;13.90;80.27
55801;BME280;41730;51.960;20.158;2023-06-14T01:54:55;100277.16;;;13.90;80.05
55801;BME280;41730;51.960;20.158;2023-06-14T01:57:27;100278.31;;;13.93;80.07
55801;BME280;41730;51.960;20.158;2023-06-14T01:59:59;100278.98;;;13.91;80.11
55801;BME280;41730;51.960;20.158;2023-06-14T02:02:31;100279.48;;;13.84;80.16
55801;BME280;41730;51.960;20.158;2023-06-14T02:05:03;100280.89;;;13.84;80.63
55801;BME280;41730;51.960;20.158;2023-06-14T02:07:35;100281.39;;;13.82;80.32
55801;BME280;41730;51.960;20.158;2023-06-14T02:10:07;100279.63;;;13.75;80.70
55801;BME280;41730;51.960;20.158;2023-06-14T02:12:39;100279.37;;;13.67;81.11
55801;BME280;41730;51.960;20.158;2023-06-14T02:15:11;100279.46;;;13.73;81.14
55801;BME280;41730;51.960;20.158;2023-06-14T02:17:47;100273.70;;;13.73;81.26
55801;BME280;41730;51.960;20.158;2023-06-14T02:20:19;100280.73;;;13.69;81.29
55801;BME280;41730;51.960;20.158;2023-06-14T02:22:51;100281.29;;;13.69;81.44
55801;BME280;41730;51.960;20.158;2023-06-14T02:25:22;100283.10;;;13.74;81.45
55801;BME280;41730;51.960;20.158;2023-06-14T02:27:54;100278.54;;;13.75;81.26
55801;BME280;41730;51.960;20.158;2023-06-14T02:30:26;100280.80;;;13.63;81.85
55801;BME280;41730;51.960;20.158;2023-06-14T02:32:57;100282.55;;;13.50;82.39
55801;BME280;41730;51.960;20.158;2023-06-14T02:35:30;100281.13;;;13.52;82.70
55801;BME280;41730;51.960;20.158;2023-06-14T02:38:02;100284.09;;;13.54;82.81
55801;BME280;41730;51.960;20.158;2023-06-14T02:40:34;100284.36;;;13.55;82.80
55801;BME280;41730;51.960;20.158;2023-06-14T02:43:05;100283.27;;;13.50;83.25
55801;BME280;41730;51.960;20.158;2023-06-14T02:45:37;100280.48;;;13.46;83.52
55801;BME280;41730;51.960;20.158;2023-06-14T02:48:09;100281.08;;;13.51;83.35
55801;BME280;41730;51.960;20.158;2023-06-14T02:50:41;100277.92;;;13.52;83.40
55801;BME280;41730;51.960;20.158;2023-06-14T02:53:13;100272.84;;;13.65;82.80
55801;BME280;41730;51.960;20.158;2023-06-14T02:55:44;100270.56;;;13.67;82.63
55801;BME280;41730;51.960;20.158;2023-06-14T02:58:17;100269.24;;;13.62;82.67
55801;BME280;41730;51.960;20.158;2023-06-14T03:00:49;100267.88;;;13.61;82.90
55801;BME280;41730;51.960;20.158;2023-06-14T03:03:22;100266.73;;;13.64;82.66
55801;BME280;41730;51.960;20.158;2023-06-14T03:05:55;100272.10;;;13.79;82.44
55801;BME280;41730;51.960;20.158;2023-06-14T03:08:28;100266.66;;;13.89;81.83
55801;BME280;41730;51.960;20.158;2023-06-14T03:11:01;100267.69;;;13.92;81.59
55801;BME280;41730;51.960;20.158;2023-06-14T03:13:35;100268.27;;;13.96;81.25
55801;BME280;41730;51.960;20.158;2023-06-14T03:16:07;100266.57;;;13.97;81.33
55801;BME280;41730;51.960;20.158;2023-06-14T03:18:39;100268.43;;;14.09;80.89
55801;BME280;41730;51.960;20.158;2023-06-14T03:21:11;100269.42;;;14.16;80.69
55801;BME280;41730;51.960;20.158;2023-06-14T03:23:43;100270.60;;;14.18;80.48
55801;BME280;41730;51.960;20.158;2023-06-14T03:26:15;100274.67;;;14.01;80.97
55801;BME280;41730;51.960;20.158;2023-06-14T03:28:54;100270.27;;;13.96;81.14
55801;BME280;41730;51.960;20.158;2023-06-14T03:31:41;100275.48;;;14.02;81.15
55801;BME280;41730;51.960;20.158;2023-06-14T03:34:40;100276.48;;;14.12;80.82
55801;BME280;41730;51.960;20.158;2023-06-14T03:37:24;100271.48;;;14.14;80.54
55801;BME280;41730;51.960;20.158;2023-06-14T03:40:11;100274.73;;;14.12;80.63
55801;BME280;41730;51.960;20.158;2023-06-14T03:43:00;100273.86;;;14.04;80.75
55801;BME280;41730;51.960;20.158;2023-06-14T03:45:38;100274.31;;;14.11;80.52
55801;BME280;41730;51.960;20.158;2023-06-14T03:48:10;100276.13;;;14.07;80.68
55801;BME280;41730;51.960;20.158;2023-06-14T03:50:42;100271.77;;;14.00;81.07
55801;BME280;41730;51.960;20.158;2023-06-14T03:53:14;100271.98;;;14.11;80.66
55801;BME280;41730;51.960;20.158;2023-06-14T03:55:46;100270.92;;;14.16;80.63
55801;BME280;41730;51.960;20.158;2023-06-14T03:58:22;100268.15;;;14.27;80.33
55801;BME280;41730;51.960;20.158;2023-06-14T04:00:54;100265.69;;;14.34;79.96
55801;BME280;41730;51.960;20.158;2023-06-14T04:03:25;100266.92;;;14.36;80.23
55801;BME280;41730;51.960;20.158;2023-06-14T04:06:00;100271.18;;;14.43;80.18
55801;BME280;41730;51.960;20.158;2023-06-14T04:08:32;100273.23;;;14.57;79.79
55801;BME280;41730;51.960;20.158;2023-06-14T04:11:04;100273.68;;;14.61;79.11
55801;BME280;41730;51.960;20.158;2023-06-14T04:13:36;100279.33;;;14.54;79.56
55801;BME280;41730;51.960;20.158;2023-06-14T04:16:09;100278.83;;;14.57;79.77
55801;BME280;41730;51.960;20.158;2023-06-14T04:18:41;100285.72;;;14.71;79.42
55801;BME280;41730;51.960;20.158;2023-06-14T04:21:13;100289.81;;;14.85;78.98
55801;BME280;41730;51.960;20.158;2023-06-14T04:23:44;100293.14;;;14.96;78.62
55801;BME280;41730;51.960;20.158;2023-06-14T04:26:16;100294.56;;;15.10;78.23
55801;BME280;41730;51.960;20.158;2023-06-14T04:28:49;100290.66;;;15.19;77.84
55801;BME280;41730;51.960;20.158;2023-06-14T04:31:27;100289.58;;;15.25;77.96
55801;BME280;41730;51.960;20.158;2023-06-14T04:34:04;100288.94;;;15.39;78.05
55801;BME280;41730;51.960;20.158;2023-06-14T04:36:36;100287.70;;;15.52;77.70
55801;BME280;41730;51.960;20.158;2023-06-14T04:39:08;100288.66;;;15.68;77.33
55801;BME280;41730;51.960;20.158;2023-06-14T04:41:39;100290.95;;;15.82;76.53
55801;BME280;41730;51.960;20.158;2023-06-14T04:44:11;100283.82;;;15.88;75.99
55801;BME280;41730;51.960;20.158;2023-06-14T04:46:43;100277.88;;;15.84;76.07
55801;BME280;41730;51.960;20.158;2023-06-14T04:49:17;100280.35;;;15.89;75.91
55801;BME280;41730;51.960;20.158;2023-06-14T04:51:49;100275.80;;;15.97;75.78
55801;BME280;41730;51.960;20.158;2023-06-14T04:54:29;100276.14;;;15.99;75.44
55801;BME280;41730;51.960;20.158;2023-06-14T04:57:04;100281.89;;;15.91;76.32
55801;BME280;41730;51.960;20.158;2023-06-14T04:59:36;100282.80;;;15.98;76.22
55801;BME280;41730;51.960;20.158;2023-06-14T05:02:07;100287.96;;;16.09;75.95
55801;BME280;41730;51.960;20.158;2023-06-14T05:04:39;100293.45;;;16.21;75.15
55801;BME280;41730;51.960;20.158;2023-06-14T05:07:11;100293.59;;;16.35;74.47
55801;BME280;41730;51.960;20.158;2023-06-14T05:09:44;100291.23;;;16.40;74.16
55801;BME280;41730;51.960;20.158;2023-06-14T05:12:17;100292.34;;;16.50;72.92
55801;BME280;41730;51.960;20.158;2023-06-14T05:14:49;100292.40;;;16.52;73.10
55801;BME280;41730;51.960;20.158;2023-06-14T05:17:20;100290.40;;;16.53;73.30
55801;BME280;41730;51.960;20.158;2023-06-14T05:19:53;100288.66;;;16.58;73.28
55801;BME280;41730;51.960;20.158;2023-06-14T05:22:26;100284.23;;;16.64;72.62
55801;BME280;41730;51.960;20.158;2023-06-14T05:24:57;100282.07;;;16.71;72.57
55801;BME280;41730;51.960;20.158;2023-06-14T05:27:30;100280.41;;;16.70;72.68
55801;BME280;41730;51.960;20.158;2023-06-14T05:30:02;100283.60;;;16.69;72.95
55801;BME280;41730;51.960;20.158;2023-06-14T05:32:36;100284.13;;;16.70;73.21
55801;BME280;41730;51.960;20.158;2023-06-14T05:35:09;100285.09;;;16.66;73.14
55801;BME280;41730;51.960;20.158;2023-06-14T05:37:42;100289.77;;;16.71;73.08
55801;BME280;41730;51.960;20.158;2023-06-14T05:40:14;100290.37;;;16.73;73.19
55801;BME280;41730;51.960;20.158;2023-06-14T05:42:47;100289.04;;;16.83;72.93
55801;BME280;41730;51.960;20.158;2023-06-14T05:45:19;100290.55;;;16.78;72.81
55801;BME280;41730;51.960;20.158;2023-06-14T05:47:51;100291.38;;;16.81;72.70
55801;BME280;41730;51.960;20.158;2023-06-14T05:50:24;100290.39;;;16.80;72.56
55801;BME280;41730;51.960;20.158;2023-06-14T05:52:56;100291.93;;;16.82;72.39
55801;BME280;41730;51.960;20.158;2023-06-14T05:55:28;100292.20;;;16.96;71.81
55801;BME280;41730;51.960;20.158;2023-06-14T05:57:59;100290.54;;;17.02;71.41
55801;BME280;41730;51.960;20.158;2023-06-14T06:00:31;100292.93;;;17.11;71.14
55801;BME280;41730;51.960;20.158;2023-06-14T06:03:04;100294.98;;;17.16;70.89
55801;BME280;41730;51.960;20.158;2023-06-14T06:05:38;100296.16;;;17.01;71.03
55801;BME280;41730;51.960;20.158;2023-06-14T06:08:10;100297.19;;;17.02;70.50
55801;BME280;41730;51.960;20.158;2023-06-14T06:10:42;100295.73;;;17.00;70.21
55801;BME280;41730;51.960;20.158;2023-06-14T06:13:13;100298.01;;;16.92;70.26
55801;BME280;41730;51.960;20.158;2023-06-14T06:15:45;100293.42;;;16.98;70.07
55801;BME280;41730;51.960;20.158;2023-06-14T06:18:17;100294.59;;;17.00;69.78
55801;BME280;41730;51.960;20.158;2023-06-14T06:20:49;100293.22;;;17.13;69.38
55801;BME280;41730;51.960;20.158;2023-06-14T06:23:21;100295.38;;;17.24;69.18
55801;BME280;41730;51.960;20.158;2023-06-14T06:25:53;100296.11;;;17.40;69.04
55801;BME280;41730;51.960;20.158;2023-06-14T06:28:25;100295.45;;;17.62;68.71
55801;BME280;41730;51.960;20.158;2023-06-14T06:30:57;100289.02;;;17.70;68.55
55801;BME280;41730;51.960;20.158;2023-06-14T06:33:31;100287.79;;;17.78;68.19
55801;BME280;41730;51.960;20.158;2023-06-14T06:36:03;100289.83;;;17.87;67.44
55801;BME280;41730;51.960;20.158;2023-06-14T06:38:34;100290.48;;;18.03;66.88
55801;BME280;41730;51.960;20.158;2023-06-14T06:41:07;100287.67;;;18.00;66.56
55801;BME280;41730;51.960;20.158;2023-06-14T06:43:38;100294.81;;;17.93;67.14
55801;BME280;41730;51.960;20.158;2023-06-14T06:46:11;100300.50;;;17.97;67.41
55801;BME280;41730;51.960;20.158;2023-06-14T06:48:43;100304.11;;;18.19;66.75
55801;BME280;41730;51.960;20.158;2023-06-14T06:51:15;100305.14;;;18.34;66.23
55801;BME280;41730;51.960;20.158;2023-06-14T06:53:53;100307.55;;;18.30;65.98
55801;BME280;41730;51.960;20.158;2023-06-14T06:56:25;100313.09;;;18.36;65.77
55801;BME280;41730;51.960;20.158;2023-06-14T06:59:01;100309.90;;;18.48;64.76
55801;BME280;41730;51.960;20.158;2023-06-14T07:01:33;100310.46;;;18.56;64.48
55801;BME280;41730;51.960;20.158;2023-06-14T07:04:06;100313.61;;;18.51;63.29
55801;BME280;41730;51.960;20.158;2023-06-14T07:06:38;100314.79;;;18.44;63.92
55801;BME280;41730;51.960;20.158;2023-06-14T07:09:10;100318.16;;;18.41;63.49
55801;BME280;41730;51.960;20.158;2023-06-14T07:11:44;100317.45;;;18.33;63.89
55801;BME280;41730;51.960;20.158;2023-06-14T07:14:16;100318.39;;;18.48;63.66
55801;BME280;41730;51.960;20.158;2023-06-14T07:16:48;100316.27;;;18.53;63.23
55801;BME280;41730;51.960;20.158;2023-06-14T07:19:20;100313.70;;;18.58;63.14
55801;BME280;41730;51.960;20.158;2023-06-14T07:21:52;100315.05;;;18.60;63.24
55801;BME280;41730;51.960;20.158;2023-06-14T07:24:24;100311.21;;;18.75;63.24
55801;BME280;41730;51.960;20.158;2023-06-14T07:26:56;100312.51;;;18.93;63.21
55801;BME280;41730;51.960;20.158;2023-06-14T07:29:28;100312.04;;;19.11;62.24
55801;BME280;41730;51.960;20.158;2023-06-14T07:32:00;100315.17;;;19.28;61.91
55801;BME280;41730;51.960;20.158;2023-06-14T07:34:31;100315.45;;;19.40;61.58
55801;BME280;41730;51.960;20.158;2023-06-14T07:37:03;100321.58;;;19.35;61.70
55801;BME280;41730;51.960;20.158;2023-06-14T07:39:35;100324.85;;;19.46;62.06
55801;BME280;41730;51.960;20.158;2023-06-14T07:42:08;100328.14;;;19.58;61.56
55801;BME280;41730;51.960;20.158;2023-06-14T07:44:40;100327.48;;;19.63;60.98
55801;BME280;41730;51.960;20.158;2023-06-14T07:47:12;100332.39;;;19.61;60.94
55801;BME280;41730;51.960;20.158;2023-06-14T07:49:44;100332.88;;;19.59;61.07
55801;BME280;41730;51.960;20.158;2023-06-14T07:52:15;100337.17;;;19.63;61.06
55801;BME280;41730;51.960;20.158;2023-06-14T07:54:47;100335.39;;;19.62;61.07
55801;BME280;41730;51.960;20.158;2023-06-14T07:57:24;100340.13;;;19.65;61.01
55801;BME280;41730;51.960;20.158;2023-06-14T07:59:57;100341.69;;;19.58;60.91
55801;BME280;41730;51.960;20.158;2023-06-14T08:02:28;100341.98;;;19.48;61.02
55801;BME280;41730;51.960;20.158;2023-06-14T08:05:01;100339.45;;;19.46;61.14
55801;BME280;41730;51.960;20.158;2023-06-14T08:07:33;100344.28;;;19.50;61.18
55801;BME280;41730;51.960;20.158;2023-06-14T08:10:06;100344.74;;;19.61;60.96
55801;BME280;41730;51.960;20.158;2023-06-14T08:12:45;100344.42;;;19.71;60.67
55801;BME280;41730;51.960;20.158;2023-06-14T08:15:29;100342.25;;;19.84;60.36
55801;BME280;41730;51.960;20.158;2023-06-14T08:18:13;100338.45;;;19.94;60.14
55801;BME280;41730;51.960;20.158;2023-06-14T08:20:45;100338.55;;;19.98;60.14
55801;BME280;41730;51.960;20.158;2023-06-14T08:23:18;100337.10;;;19.91;60.45
55801;BME280;41730;51.960;20.158;2023-06-14T08:25:52;100332.92;;;19.97;60.43
55801;BME280;41730;51.960;20.158;2023-06-14T08:28:25;100332.30;;;20.07;60.07
55801;BME280;41730;51.960;20.158;2023-06-14T08:30:58;100329.02;;;19.97;59.10
55801;BME280;41730;51.960;20.158;2023-06-14T08:33:29;100327.84;;;19.93;58.54
55801;BME280;41730;51.960;20.158;2023-06-14T08:36:03;100328.42;;;19.88;58.87
55801;BME280;41730;51.960;20.158;2023-06-14T08:38:35;100328.32;;;19.83;58.88
55801;BME280;41730;51.960;20.158;2023-06-14T08:41:07;100324.80;;;19.84;59.52
55801;BME280;41730;51.960;20.158;2023-06-14T08:43:39;100325.31;;;19.98;59.23
55801;BME280;41730;51.960;20.158;2023-06-14T08:46:11;100320.55;;;20.30;58.61
55801;BME280;41730;51.960;20.158;2023-06-14T08:48:47;100316.94;;;20.55;57.98
55801;BME280;41730;51.960;20.158;2023-06-14T08:51:21;100316.98;;;20.67;57.58
55801;BME280;41730;51.960;20.158;2023-06-14T08:53:57;100317.59;;;20.74;57.21
55801;BME280;41730;51.960;20.158;2023-06-14T08:56:37;100319.38;;;20.81;56.45
55801;BME280;41730;51.960;20.158;2023-06-14T08:59:16;100319.19;;;20.78;56.07
55801;BME280;41730;51.960;20.158;2023-06-14T09:01:54;100319.43;;;20.90;55.31
55801;BME280;41730;51.960;20.158;2023-06-14T09:04:38;100323.30;;;20.77;55.55
55801;BME280;41730;51.960;20.158;2023-06-14T09:07:12;100322.99;;;20.72;54.86
55801;BME280;41730;51.960;20.158;2023-06-14T09:09:44;100320.73;;;20.59;55.39
55801;BME280;41730;51.960;20.158;2023-06-14T09:12:35;100319.54;;;20.59;55.34
55801;BME280;41730;51.960;20.158;2023-06-14T09:15:08;100324.06;;;20.64;55.12
55801;BME280;41730;51.960;20.158;2023-06-14T09:17:40;100325.40;;;20.61;55.32
55801;BME280;41730;51.960;20.158;2023-06-14T09:20:12;100322.53;;;20.55;55.44
55801;BME280;41730;51.960;20.158;2023-06-14T09:22:49;100320.59;;;20.65;55.45
55801;BME280;41730;51.960;20.158;2023-06-14T09:25:22;100322.06;;;20.86;55.18
55801;BME280;41730;51.960;20.158;2023-06-14T09:28:09;100319.98;;;21.06;54.97
55801;BME280;41730;51.960;20.158;2023-06-14T09:30:41;100319.77;;;21.11;54.87
55801;BME280;41730;51.960;20.158;2023-06-14T09:33:18;100315.55;;;21.03;54.89
55801;BME280;41730;51.960;20.158;2023-06-14T09:35:53;100317.41;;;21.14;54.86
55801;BME280;41730;51.960;20.158;2023-06-14T09:38:26;100316.18;;;21.29;52.95
55801;BME280;41730;51.960;20.158;2023-06-14T09:40:59;100311.64;;;21.17;51.93
55801;BME280;41730;51.960;20.158;2023-06-14T09:43:35;100311.07;;;21.04;51.39
55801;BME280;41730;51.960;20.158;2023-06-14T09:46:08;100309.20;;;21.17;50.89
55801;BME280;41730;51.960;20.158;2023-06-14T09:48:40;100310.30;;;21.09;51.49
55801;BME280;41730;51.960;20.158;2023-06-14T09:51:15;100314.23;;;21.15;51.99
55801;BME280;41730;51.960;20.158;2023-06-14T09:53:50;100310.44;;;21.21;51.68
55801;BME280;41730;51.960;20.158;2023-06-14T09:56:25;100310.11;;;21.11;52.57
55801;BME280;41730;51.960;20.158;2023-06-14T09:59:00;100309.85;;;21.20;52.79
55801;BME280;41730;51.960;20.158;2023-06-14T10:01:41;100312.61;;;21.32;52.07
55801;BME280;41730;51.960;20.158;2023-06-14T10:04:15;100308.82;;;21.10;52.55
55801;BME280;41730;51.960;20.158;2023-06-14T10:06:47;100315.83;;;20.97;52.66
55801;BME280;41730;51.960;20.158;2023-06-14T10:09:20;100310.98;;;20.77;53.34
55801;BME280;41730;51.960;20.158;2023-06-14T10:11:53;100313.30;;;20.82;53.34
55801;BME280;41730;51.960;20.158;2023-06-14T10:14:25;100310.69;;;20.92;53.33
55801;BME280;41730;51.960;20.158;2023-06-14T10:17:03;100310.31;;;21.11;53.40
55801;BME280;41730;51.960;20.158;2023-06-14T10:19:40;100307.36;;;21.13;53.37
55801;BME280;41730;51.960;20.158;2023-06-14T10:22:17;100310.26;;;21.05;53.57
55801;BME280;41730;51.960;20.158;2023-06-14T10:24:49;100304.77;;;20.92;53.69
55801;BME280;41730;51.960;20.158;2023-06-14T10:27:21;100306.27;;;20.90;53.66
55801;BME280;41730;51.960;20.158;2023-06-14T10:30:09;100305.39;;;20.80;54.00
55801;BME280;41730;51.960;20.158;2023-06-14T10:33:04;100305.55;;;20.79;53.98
55801;BME280;41730;51.960;20.158;2023-06-14T10:35:37;100308.61;;;20.72;54.31
55801;BME280;41730;51.960;20.158;2023-06-14T10:38:11;100306.83;;;20.90;54.13
55801;BME280;41730;51.960;20.158;2023-06-14T10:40:43;100304.07;;;20.88;54.16
55801;BME280;41730;51.960;20.158;2023-06-14T10:43:24;100302.90;;;20.77;54.29
55801;BME280;41730;51.960;20.158;2023-06-14T10:46:15;100303.23;;;20.73;54.81
55801;BME280;41730;51.960;20.158;2023-06-14T10:48:48;100304.14;;;20.51;55.49
55801;BME280;41730;51.960;20.158;2023-06-14T10:51:20;100300.59;;;20.28;56.29
55801;BME280;41730;51.960;20.158;2023-06-14T10:53:53;100299.94;;;20.21;56.93
55801;BME280;41730;51.960;20.158;2023-06-14T10:56:31;100304.41;;;20.01;57.48
55801;BME280;41730;51.960;20.158;2023-06-14T10:59:04;100302.70;;;19.88;58.20
55801;BME280;41730;51.960;20.158;2023-06-14T11:01:40;100306.05;;;19.75;59.30
55801;BME280;41730;51.960;20.158;2023-06-14T11:04:13;100301.05;;;19.62;60.40
55801;BME280;41730;51.960;20.158;2023-06-14T11:06:50;100296.84;;;19.64;60.41
55801;BME280;41730;51.960;20.158;2023-06-14T11:09:54;100292.41;;;19.61;59.78
55801;BME280;41730;51.960;20.158;2023-06-14T11:12:36;100293.52;;;19.61;59.67
55801;BME280;41730;51.960;20.158;2023-06-14T11:15:08;100294.17;;;19.69;59.57
55801;BME280;41730;51.960;20.158;2023-06-14T11:17:40;100290.85;;;19.81;59.25
55801;BME280;41730;51.960;20.158;2023-06-14T11:20:24;100285.77;;;19.81;59.42
55801;BME280;41730;51.960;20.158;2023-06-14T11:22:57;100286.08;;;19.92;58.46
55801;BME280;41730;51.960;20.158;2023-06-14T11:25:29;100281.63;;;19.85;58.72
55801;BME280;41730;51.960;20.158;2023-06-14T11:28:01;100285.52;;;19.88;58.77
55801;BME280;41730;51.960;20.158;2023-06-14T11:33:04;100282.70;;;19.88;58.74
55801;BME280;41730;51.960;20.158;2023-06-14T11:35:36;100284.46;;;19.85;58.68
55801;BME280;41730;51.960;20.158;2023-06-14T11:38:09;100283.80;;;19.82;58.88
55801;BME280;41730;51.960;20.158;2023-06-14T11:40:41;100283.70;;;19.90;58.79
55801;BME280;41730;51.960;20.158;2023-06-14T11:43:13;100285.98;;;19.94;58.71
55801;BME280;41730;51.960;20.158;2023-06-14T11:45:45;100287.61;;;19.97;58.74
55801;BME280;41730;51.960;20.158;2023-06-14T11:48:40;100282.30;;;20.06;58.68
55801;BME280;41730;51.960;20.158;2023-06-14T11:51:12;100281.47;;;20.05;58.55
55801;BME280;41730;51.960;20.158;2023-06-14T11:53:45;100289.35;;;19.82;59.77
55801;BME280;41730;51.960;20.158;2023-06-14T11:56:17;100285.83;;;19.40;61.41
55801;BME280;41730;51.960;20.158;2023-06-14T11:58:49;100293.67;;;19.07;65.57
55801;BME280;41730;51.960;20.158;2023-06-14T12:01:21;100296.39;;;18.57;68.90
55801;BME280;41730;51.960;20.158;2023-06-14T12:03:54;100291.52;;;18.16;70.75
55801;BME280;41730;51.960;20.158;2023-06-14T12:06:30;100296.23;;;17.74;71.88
55801;BME280;41730;51.960;20.158;2023-06-14T12:09:07;100304.81;;;17.43;74.36
55801;BME280;41730;51.960;20.158;2023-06-14T12:11:43;100300.14;;;17.16;75.85
55801;BME280;41730;51.960;20.158;2023-06-14T12:14:15;100290.85;;;16.86;76.51
55801;BME280;41730;51.960;20.158;2023-06-14T12:16:47;100286.86;;;16.65;77.55
55801;BME280;41730;51.960;20.158;2023-06-14T12:19:19;100285.07;;;16.52;77.94
55801;BME280;41730;51.960;20.158;2023-06-14T12:21:52;100276.56;;;16.57;78.19
55801;BME280;41730;51.960;20.158;2023-06-14T12:24:29;100274.88;;;16.74;77.66
55801;BME280;41730;51.960;20.158;2023-06-14T12:27:01;100274.30;;;16.83;77.86
55801;BME280;41730;51.960;20.158;2023-06-14T12:29:33;100271.02;;;16.92;77.76
55801;BME280;41730;51.960;20.158;2023-06-14T12:32:07;100273.09;;;17.15;77.47
55801;BME280;41730;51.960;20.158;2023-06-14T12:34:39;100271.15;;;17.30;77.12
55801;BME280;41730;51.960;20.158;2023-06-14T12:37:11;100268.79;;;17.54;76.61
55801;BME280;41730;51.960;20.158;2023-06-14T12:39:43;100266.67;;;17.85;75.82
55801;BME280;41730;51.960;20.158;2023-06-14T12:42:15;100266.61;;;18.06;75.44
55801;BME280;41730;51.960;20.158;2023-06-14T12:44:46;100264.78;;;18.21;75.37
55801;BME280;41730;51.960;20.158;2023-06-14T12:47:18;100263.77;;;18.27;75.55
55801;BME280;41730;51.960;20.158;2023-06-14T12:49:50;100261.00;;;18.48;75.58
55801;BME280;41730;51.960;20.158;2023-06-14T12:52:22;100260.70;;;18.71;75.39
55801;BME280;41730;51.960;20.158;2023-06-14T12:54:53;100253.03;;;18.88;75.08
55801;BME280;41730;51.960;20.158;2023-06-14T12:57:25;100255.52;;;19.01;75.23
55801;BME280;41730;51.960;20.158;2023-06-14T12:59:57;100258.59;;;19.08;75.12
55801;BME280;41730;51.960;20.158;2023-06-14T13:02:29;100252.87;;;19.20;75.18
55801;BME280;41730;51.960;20.158;2023-06-14T13:05:01;100252.98;;;19.24;75.30
55801;BME280;41730;51.960;20.158;2023-06-14T13:07:33;100250.36;;;19.22;73.40
55801;BME280;41730;51.960;20.158;2023-06-14T13:10:06;100250.21;;;19.12;70.13
55801;BME280;41730;51.960;20.158;2023-06-14T13:12:38;100248.91;;;19.03;71.12
55801;BME280;41730;51.960;20.158;2023-06-14T13:15:10;100247.08;;;19.03;69.32
55801;BME280;41730;51.960;20.158;2023-06-14T13:17:42;100247.21;;;18.99;68.50